Terminal Aerodrome Forecast
Issued by NWS

Home | Current Version | Previous Version | Text Only | Print | Product List | Glossary On
Versions: 1 2 3 4 5 6 7 8 9 10 11 12 13 14 15
000
FTUS46 KOTX 231724
TAFCOE
TAF
KCOE 231724Z 2318/2418 17007KT P6SM BKN080 BKN120
     FM240300 08004KT P6SM SCT080 SCT120
     FM240900 06005KT P6SM BKN100=

USA.gov is the U.S. government's official web portal to all federal, state and local government web resources and services.